Time;durP1;ratioP1;P1;durP2;ratioP2;P2;SDS_P1;SDS_P2;PMS_P1;PMS_P2;Temp;Humidity;BMP_temperature;BMP_pressure;BME280_temperature;BME280_humidity;BME280_pressure;Samples;Min_cycle;Max_cycle;Signal;HPM_P1;HPM_P2
2021/06/20 00:01:20;;;;;;;6.03;5.43;;;24.80;55.10;;;;;;4990221;28;20402;-61
2021/06/20 00:03:45;;;;;;;5.55;5.05;;;24.80;55.00;;;;;;4989762;28;20426;-61
2021/06/20 00:06:23;;;;;;;5.40;4.90;;;24.80;55.10;;;;;;4991231;28;20791;-61
2021/06/20 00:08:49;;;;;;;5.57;5.07;;;24.80;55.00;;;;;;4989756;28;20397;-62
2021/06/20 00:11:15;;;;;;;5.73;5.20;;;24.80;54.90;;;;;;4989657;28;20794;-61
2021/06/20 00:13:40;;;;;;;5.95;5.35;;;24.80;55.00;;;;;;4994329;28;20400;-62
2021/06/20 00:16:06;;;;;;;5.53;5.03;;;24.80;55.00;;;;;;4988756;28;20400;-61
2021/06/20 00:18:31;;;;;;;5.30;4.80;;;24.80;55.10;;;;;;4993879;28;21003;-61
2021/06/20 00:20:57;;;;;;;5.40;4.90;;;24.80;54.90;;;;;;5001147;28;20408;-61
2021/06/20 00:23:23;;;;;;;6.13;5.10;;;24.80;54.90;;;;;;4985858;28;20419;-61
2021/06/20 00:25:48;;;;;;;5.28;4.78;;;24.80;55.00;;;;;;4989336;28;20417;-61
2021/06/20 00:28:14;;;;;;;6.07;4.90;;;24.80;54.90;;;;;;4981056;28;20818;-62
2021/06/20 00:30:40;;;;;;;5.43;4.93;;;24.80;55.00;;;;;;4993861;28;20474;-61
2021/06/20 00:33:06;;;;;;;5.57;5.07;;;24.80;55.50;;;;;;4987991;28;20386;-62
2021/06/20 00:35:32;;;;;;;5.33;4.83;;;24.80;55.00;;;;;;4988335;28;20442;-62
2021/06/20 00:37:58;;;;;;;5.22;4.72;;;24.80;55.00;;;;;;4988889;28;20453;-62
2021/06/20 00:40:24;;;;;;;5.13;4.73;;;24.80;54.90;;;;;;4986417;28;20449;-62
2021/06/20 00:42:50;;;;;;;5.55;5.00;;;24.80;54.90;;;;;;4998873;28;20401;-62
2021/06/20 00:45:18;;;;;;;6.00;5.40;;;24.80;54.90;;;;;;4992459;28;20428;-61
2021/06/20 00:47:44;;;;;;;5.13;4.70;;;24.80;55.00;;;;;;4992591;28;20821;-61
2021/06/20 00:50:12;;;;;;;5.60;5.10;;;24.80;54.80;;;;;;4992712;28;20393;-61
2021/06/20 00:52:39;;;;;;;5.93;5.32;;;24.80;54.80;;;;;;4994020;28;20398;-62
2021/06/20 00:55:05;;;;;;;5.22;4.72;;;24.80;54.90;;;;;;4987553;28;20398;-62
2021/06/20 00:57:33;;;;;;;5.75;5.15;;;24.80;54.90;;;;;;4993184;28;20394;-61
2021/06/20 00:59:59;;;;;;;5.10;4.60;;;24.80;54.80;;;;;;4995328;28;20394;-62
2021/06/20 01:02:25;;;;;;;4.95;4.55;;;24.80;54.90;;;;;;4990549;28;20445;-62
2021/06/20 01:04:51;;;;;;;5.40;4.90;;;24.70;54.80;;;;;;4995257;28;20418;-62
2021/06/20 01:07:21;;;;;;;5.55;5.05;;;24.70;54.80;;;;;;4992252;28;20536;-63
2021/06/20 01:09:48;;;;;;;5.78;5.25;;;24.70;54.90;;;;;;4993548;28;20637;-61
2021/06/20 01:12:16;;;;;;;5.68;5.07;;;24.70;54.90;;;;;;4996797;28;20903;-61
2021/06/20 01:14:43;;;;;;;5.30;4.80;;;24.80;54.90;;;;;;4996950;28;20450;-61
2021/06/20 01:17:09;;;;;;;5.60;5.10;;;24.70;54.80;;;;;;4997212;28;20392;-61
2021/06/20 01:19:37;;;;;;;5.80;5.20;;;24.70;54.80;;;;;;4992850;28;20409;-61
2021/06/20 01:22:18;;;;;;;5.20;4.80;;;24.70;54.90;;;;;;4992150;28;20913;-62
2021/06/20 01:24:47;;;;;;;5.30;4.80;;;24.70;54.70;;;;;;4992088;28;20431;-61
2021/06/20 01:27:13;;;;;;;5.47;4.97;;;24.70;54.80;;;;;;4996441;28;20975;-61
2021/06/20 01:29:46;;;;;;;5.30;4.80;;;24.70;54.90;;;;;;4991710;28;20461;-62
2021/06/20 01:32:12;;;;;;;5.65;5.15;;;24.70;54.80;;;;;;4996041;28;20400;-61
2021/06/20 01:34:38;;;;;;;5.15;4.75;;;24.70;54.70;;;;;;4993908;28;20397;-61
2021/06/20 01:37:08;;;;;;;5.18;4.75;;;24.70;54.70;;;;;;4995723;28;20390;-61
2021/06/20 01:39:36;;;;;;;5.68;5.07;;;24.70;54.80;;;;;;4997110;28;20393;-61
2021/06/20 01:42:01;;;;;;;5.35;4.85;;;24.70;54.70;;;;;;4990394;28;20871;-62
2021/06/20 01:44:27;;;;;;;4.90;4.40;;;24.70;54.80;;;;;;4991845;28;20428;-62
2021/06/20 01:46:53;;;;;;;5.10;4.60;;;24.70;54.80;;;;;;4985348;28;20494;-61
2021/06/20 01:49:18;;;;;;;5.47;4.93;;;24.70;54.70;;;;;;4997358;28;20401;-61
2021/06/20 01:51:45;;;;;;;5.37;4.87;;;24.70;54.80;;;;;;4993824;28;20729;-61
2021/06/20 01:54:11;;;;;;;5.55;5.05;;;24.70;54.80;;;;;;4989809;28;20391;-62
2021/06/20 01:56:36;;;;;;;5.43;4.93;;;24.70;54.70;;;;;;4992258;28;20469;-61
2021/06/20 01:59:02;;;;;;;5.45;4.95;;;24.70;54.80;;;;;;4991934;28;20398;-61
2021/06/20 02:01:30;;;;;;;5.33;4.83;;;24.70;54.70;;;;;;4992019;28;20644;-62
2021/06/20 02:03:56;;;;;;;5.50;5.00;;;24.70;54.80;;;;;;4984043;28;20433;-62
2021/06/20 02:06:21;;;;;;;5.30;4.80;;;24.70;54.80;;;;;;4993772;28;20727;-61
2021/06/20 02:08:47;;;;;;;5.38;4.88;;;24.70;55.40;;;;;;4988052;28;20490;-61
2021/06/20 02:11:13;;;;;;;5.40;4.90;;;24.70;54.70;;;;;;4990711;28;20445;-62
2021/06/20 02:13:38;;;;;;;5.30;4.80;;;24.70;54.70;;;;;;4992869;28;20386;-62
2021/06/20 02:16:05;;;;;;;5.10;4.60;;;24.70;54.70;;;;;;4996517;28;20396;-61
2021/06/20 02:18:32;;;;;;;5.78;5.18;;;24.70;54.80;;;;;;4995474;28;20389;-62
2021/06/20 02:20:57;;;;;;;5.40;4.90;;;24.70;54.80;;;;;;4996089;28;20479;-61
2021/06/20 02:23:23;;;;;;;5.63;5.13;;;24.60;54.70;;;;;;4997422;28;20384;-62
2021/06/20 02:25:49;;;;;;;5.33;4.83;;;24.60;54.70;;;;;;4992045;28;20481;-61
2021/06/20 02:28:15;;;;;;;5.40;4.90;;;24.60;54.70;;;;;;4991480;28;20835;-62
2021/06/20 02:30:40;;;;;;;5.50;5.00;;;24.60;54.70;;;;;;4991738;28;20737;-61
2021/06/20 02:33:06;;;;;;;5.38;4.88;;;24.60;54.70;;;;;;4996140;28;20484;-62
2021/06/20 02:35:32;;;;;;;4.80;4.40;;;24.70;54.80;;;;;;5002706;28;20495;-63
2021/06/20 02:37:58;;;;;;;5.32;4.82;;;24.60;54.70;;;;;;4987073;28;20482;-62
2021/06/20 02:40:23;;;;;;;5.40;4.90;;;24.60;54.70;;;;;;4990038;28;20459;-62
2021/06/20 02:42:49;;;;;;;5.20;4.70;;;24.60;54.70;;;;;;4994274;28;20395;-62
2021/06/20 02:45:17;;;;;;;5.72;4.93;;;24.60;54.70;;;;;;4992678;28;20473;-61
2021/06/20 02:47:43;;;;;;;5.37;4.87;;;24.60;54.70;;;;;;4990709;28;20395;-62
2021/06/20 02:50:10;;;;;;;5.30;4.80;;;24.60;54.70;;;;;;4990908;28;20384;-61
2021/06/20 02:52:36;;;;;;;5.30;4.70;;;24.60;54.70;;;;;;4989644;28;20449;-61
2021/06/20 02:55:02;;;;;;;5.30;4.80;;;24.60;54.70;;;;;;4990445;28;20398;-61
2021/06/20 02:57:30;;;;;;;5.03;4.50;;;24.60;54.80;;;;;;4995534;28;20390;-61
2021/06/20 02:59:57;;;;;;;5.05;4.63;;;24.60;54.70;;;;;;4989991;28;20399;-62
2021/06/20 03:02:24;;;;;;;5.35;4.85;;;24.60;54.70;;;;;;4989928;28;20402;-62
2021/06/20 03:04:51;;;;;;;5.30;4.80;;;24.60;54.70;;;;;;4984329;28;20791;-61
2021/06/20 03:07:17;;;;;;;5.50;4.97;;;24.60;54.60;;;;;;4989877;28;20381;-61
2021/06/20 03:09:43;;;;;;;4.97;4.47;;;24.60;54.70;;;;;;4990016;28;20482;-61
2021/06/20 03:12:10;;;;;;;5.07;4.60;;;24.60;55.20;;;;;;4991161;28;20737;-62
2021/06/20 03:14:35;;;;;;;5.27;4.77;;;24.60;54.70;;;;;;4989988;28;20499;-62
2021/06/20 03:17:03;;;;;;;5.25;4.75;;;24.60;54.70;;;;;;4990635;28;20820;-61
2021/06/20 03:19:29;;;;;;;5.28;4.78;;;24.60;54.70;;;;;;4992400;28;20492;-61
2021/06/20 03:22:00;;;;;;;5.57;5.07;;;24.60;54.70;;;;;;4993942;28;20902;-61
2021/06/20 03:24:31;;;;;;;5.40;4.90;;;24.60;54.60;;;;;;4989339;28;20428;-62
2021/06/20 03:26:57;;;;;;;5.38;4.88;;;24.60;54.70;;;;;;4993621;28;20443;-61
2021/06/20 03:29:23;;;;;;;4.85;4.40;;;24.60;54.70;;;;;;4989931;28;20389;-61
2021/06/20 03:31:50;;;;;;;5.50;5.00;;;24.60;54.70;;;;;;4986676;28;20913;-61
2021/06/20 03:34:16;;;;;;;5.40;4.90;;;24.60;54.70;;;;;;4991569;28;21056;-61
2021/06/20 03:36:41;;;;;;;5.43;4.93;;;24.60;54.70;;;;;;4989729;28;20942;-61
2021/06/20 03:39:07;;;;;;;5.28;4.78;;;24.60;54.70;;;;;;4989927;28;20463;-61
2021/06/20 03:41:33;;;;;;;4.90;4.50;;;24.60;54.70;;;;;;4990227;28;20398;-61
2021/06/20 03:43:59;;;;;;;5.33;4.83;;;24.60;54.60;;;;;;4988624;28;20468;-61
2021/06/20 03:46:25;;;;;;;5.20;4.70;;;24.60;55.30;;;;;;4989545;28;20429;-61
2021/06/20 03:48:51;;;;;;;4.93;4.53;;;24.60;54.60;;;;;;4995755;28;20885;-61
2021/06/20 03:51:16;;;;;;;5.30;4.80;;;24.50;54.70;;;;;;4989461;28;20444;-62
2021/06/20 03:53:44;;;;;;;5.00;4.50;;;24.60;54.70;;;;;;4989390;28;20987;-61
2021/06/20 03:56:10;;;;;;;5.68;4.97;;;24.60;54.70;;;;;;4989228;28;20393;-62
2021/06/20 03:58:36;;;;;;;5.20;4.70;;;24.60;54.70;;;;;;4984526;28;20398;-62
2021/06/20 04:01:03;;;;;;;5.22;4.72;;;24.60;54.70;;;;;;4984658;28;20394;-62
2021/06/20 04:03:29;;;;;;;5.18;4.68;;;24.50;54.60;;;;;;4988850;28;20403;-61
2021/06/20 04:05:55;;;;;;;5.28;4.78;;;24.50;54.60;;;;;;4990048;28;20409;-62
2021/06/20 04:08:20;;;;;;;5.57;5.07;;;24.60;54.70;;;;;;4989477;28;20748;-61
2021/06/20 04:10:46;;;;;;;5.30;4.80;;;24.50;54.60;;;;;;4996204;28;20410;-62
2021/06/20 04:13:12;;;;;;;5.85;4.60;;;24.50;54.60;;;;;;4989060;28;20386;-61
2021/06/20 04:15:37;;;;;;;6.00;4.80;;;24.50;54.60;;;;;;4994121;28;20401;-62
2021/06/20 04:18:03;;;;;;;4.97;4.47;;;24.50;54.60;;;;;;4994267;28;20967;-61
2021/06/20 04:20:29;;;;;;;5.00;4.50;;;24.50;54.60;;;;;;4994376;28;20911;-62
2021/06/20 04:22:54;;;;;;;5.43;4.93;;;24.50;54.70;;;;;;4989135;28;20415;-61
2021/06/20 04:25:20;;;;;;;5.30;4.80;;;24.50;54.60;;;;;;4986365;28;20559;-62
2021/06/20 04:27:48;;;;;;;5.32;4.82;;;24.50;54.70;;;;;;4989772;28;20461;-61
2021/06/20 04:30:19;;;;;;;4.82;4.43;;;24.50;54.60;;;;;;4990072;28;20398;-61
2021/06/20 04:32:46;;;;;;;5.05;4.55;;;24.50;54.70;;;;;;4989482;28;20382;-61
2021/06/20 04:35:12;;;;;;;5.28;4.78;;;24.50;54.60;;;;;;4983287;28;20485;-61
2021/06/20 04:37:39;;;;;;;5.10;4.70;;;24.50;54.60;;;;;;4981735;28;20405;-61
2021/06/20 04:40:06;;;;;;;5.40;4.90;;;24.50;54.70;;;;;;4988734;28;20941;-62
2021/06/20 04:42:37;;;;;;;5.07;4.55;;;24.50;54.60;;;;;;4990665;28;20438;-62
2021/06/20 04:45:04;;;;;;;5.10;4.50;;;24.50;54.60;;;;;;4991355;28;20744;-61
2021/06/20 04:47:30;;;;;;;5.17;4.67;;;24.50;54.70;;;;;;4991200;28;20759;-61
2021/06/20 04:49:55;;;;;;;5.30;4.80;;;24.50;54.60;;;;;;4996738;28;20390;-62
2021/06/20 04:52:21;;;;;;;5.28;4.68;;;24.50;54.70;;;;;;4991656;28;20482;-62
2021/06/20 04:54:50;;;;;;;5.23;4.73;;;24.50;54.60;;;;;;4991740;28;20505;-62
2021/06/20 04:57:20;;;;;;;5.20;4.70;;;24.50;54.50;;;;;;4988592;28;21322;-62
2021/06/20 04:59:47;;;;;;;5.30;4.78;;;24.50;54.60;;;;;;4993130;28;20397;-61
2021/06/20 05:02:13;;;;;;;5.32;4.70;;;24.50;54.50;;;;;;4988522;28;20478;-62
2021/06/20 05:04:40;;;;;;;5.03;4.63;;;24.50;54.50;;;;;;4988740;28;20425;-62
2021/06/20 05:07:06;;;;;;;5.07;4.57;;;24.50;54.50;;;;;;4991971;28;20497;-61
2021/06/20 05:09:32;;;;;;;4.97;4.57;;;24.50;54.50;;;;;;4994002;28;20547;-61
2021/06/20 05:11:58;;;;;;;5.43;4.75;;;24.50;54.50;;;;;;4989304;28;20901;-61
2021/06/20 05:14:24;;;;;;;4.97;4.50;;;24.50;54.50;;;;;;4988428;28;20585;-62
2021/06/20 05:16:49;;;;;;;4.90;4.40;;;24.50;54.50;;;;;;4988066;28;20488;-61
2021/06/20 05:19:15;;;;;;;5.30;4.80;;;24.50;54.40;;;;;;4989125;28;20399;-61
2021/06/20 05:21:40;;;;;;;5.50;5.00;;;24.50;54.40;;;;;;4990991;28;20394;-61
2021/06/20 05:24:06;;;;;;;5.13;4.63;;;24.50;54.50;;;;;;4992273;28;20417;-62
2021/06/20 05:26:32;;;;;;;5.15;4.65;;;24.50;54.50;;;;;;4989760;28;20408;-61
2021/06/20 05:28:58;;;;;;;4.80;4.33;;;24.50;54.50;;;;;;4989577;28;20782;-62
2021/06/20 05:31:24;;;;;;;4.95;4.45;;;24.50;54.50;;;;;;4995553;28;20887;-61
2021/06/20 05:33:49;;;;;;;5.10;4.60;;;24.50;54.50;;;;;;4995091;28;20394;-62
2021/06/20 05:36:15;;;;;;;5.60;4.82;;;24.50;54.50;;;;;;4991818;28;20906;-62
2021/06/20 05:38:41;;;;;;;5.20;4.70;;;24.60;53.70;;;;;;4993930;28;20390;-62
2021/06/20 05:41:07;;;;;;;5.30;4.80;;;24.60;53.70;;;;;;5000400;28;20405;-62
2021/06/20 05:43:32;;;;;;;4.95;4.55;;;24.70;53.90;;;;;;4993123;28;20440;-62
2021/06/20 05:45:58;;;;;;;5.18;4.65;;;24.70;54.70;;;;;;4991581;28;20758;-61
2021/06/20 05:48:24;;;;;;;7.35;4.90;;;24.80;54.00;;;;;;4997696;28;20389;-62
2021/06/20 05:50:49;;;;;;;6.17;4.73;;;24.80;54.00;;;;;;4991343;28;20393;-62
2021/06/20 05:53:15;;;;;;;6.15;4.88;;;24.80;54.10;;;;;;4991629;28;20397;-62
2021/06/20 05:55:41;;;;;;;5.00;4.50;;;24.80;54.00;;;;;;4991512;28;20389;-62
2021/06/20 05:58:06;;;;;;;5.72;5.05;;;24.80;53.90;;;;;;4993206;28;20395;-62
2021/06/20 06:00:32;;;;;;;7.50;4.82;;;24.80;54.30;;;;;;4991772;28;20402;-62
2021/06/20 06:02:59;;;;;;;5.60;4.63;;;24.90;54.20;;;;;;4992557;28;20414;-63
2021/06/20 06:05:25;;;;;;;6.93;4.55;;;24.90;54.20;;;;;;4999488;28;20795;-62
2021/06/20 06:07:51;;;;;;;6.30;4.80;;;24.90;54.00;;;;;;4991779;28;20735;-62
2021/06/20 06:10:17;;;;;;;5.60;4.50;;;24.90;54.30;;;;;;4987848;28;21355;-62
2021/06/20 06:12:43;;;;;;;6.10;4.50;;;24.90;54.10;;;;;;4995414;28;20389;-62
2021/06/20 06:15:10;;;;;;;5.68;4.50;;;24.90;54.00;;;;;;4991577;28;20413;-62
2021/06/20 06:17:36;;;;;;;5.75;4.60;;;25.00;53.90;;;;;;4996017;28;20913;-62
2021/06/20 06:20:03;;;;;;;5.78;4.65;;;25.00;53.80;;;;;;4991695;28;20711;-62
2021/06/20 06:22:29;;;;;;;6.38;4.53;;;25.00;53.70;;;;;;4991644;28;20383;-62
2021/06/20 06:24:55;;;;;;;6.70;4.80;;;25.00;53.70;;;;;;4991032;28;20422;-62
2021/06/20 06:27:20;;;;;;;6.50;4.90;;;25.00;53.70;;;;;;4991459;28;20390;-62
2021/06/20 06:29:46;;;;;;;5.43;4.73;;;25.00;53.60;;;;;;4992259;28;20406;-62
2021/06/20 06:32:13;;;;;;;4.90;4.35;;;25.00;53.60;;;;;;4985275;28;20401;-62
2021/06/20 06:34:39;;;;;;;7.15;4.75;;;25.00;53.60;;;;;;4989850;28;20397;-62
2021/06/20 06:37:05;;;;;;;5.35;4.63;;;25.00;53.60;;;;;;4989027;28;21372;-62
2021/06/20 06:39:31;;;;;;;6.03;4.57;;;25.00;53.50;;;;;;4991287;28;20401;-62
2021/06/20 06:41:58;;;;;;;7.53;4.70;;;25.00;53.50;;;;;;4993411;28;20486;-62
2021/06/20 06:44:25;;;;;;;5.63;4.40;;;25.00;53.50;;;;;;4991732;28;20493;-62
2021/06/20 06:46:50;;;;;;;6.10;4.55;;;25.00;53.50;;;;;;4984524;28;21020;-62
2021/06/20 06:49:16;;;;;;;5.17;4.67;;;25.10;53.50;;;;;;4993064;28;20408;-62
2021/06/20 06:51:42;;;;;;;5.38;4.80;;;25.10;53.60;;;;;;4990095;28;20801;-62
2021/06/20 06:54:07;;;;;;;5.30;4.50;;;25.10;53.50;;;;;;4990285;28;20395;-62
2021/06/20 06:56:34;;;;;;;5.13;4.60;;;25.10;53.50;;;;;;4990289;28;20398;-62
2021/06/20 06:59:00;;;;;;;5.88;4.53;;;25.10;53.40;;;;;;4993425;28;20490;-62
2021/06/20 07:01:25;;;;;;;6.43;4.90;;;25.10;53.30;;;;;;4996620;28;20479;-61
2021/06/20 07:03:54;;;;;;;5.80;4.67;;;25.10;53.50;;;;;;4993186;28;20781;-61
2021/06/20 07:06:20;;;;;;;5.78;4.60;;;25.10;53.60;;;;;;4996499;28;20900;-62
2021/06/20 07:08:47;;;;;;;5.43;4.32;;;25.10;53.70;;;;;;4988376;28;20390;-62
2021/06/20 07:11:12;;;;;;;6.07;4.68;;;25.00;53.70;;;;;;4990818;28;20491;-62
2021/06/20 07:13:38;;;;;;;6.68;4.43;;;25.00;53.70;;;;;;4990738;28;20445;-62
2021/06/20 07:16:04;;;;;;;5.80;4.40;;;25.00;53.70;;;;;;4994987;28;20425;-62
2021/06/20 07:18:30;;;;;;;6.07;4.40;;;25.00;53.70;;;;;;4994860;28;20388;-62
2021/06/20 07:20:56;;;;;;;6.20;5.07;;;25.00;53.80;;;;;;4989667;28;20812;-62
2021/06/20 07:23:22;;;;;;;7.03;4.72;;;25.00;53.90;;;;;;4989989;28;20400;-62
2021/06/20 07:25:48;;;;;;;6.97;4.70;;;25.00;54.00;;;;;;4993870;28;20436;-62
2021/06/20 07:28:13;;;;;;;7.07;4.60;;;25.00;53.90;;;;;;4990383;28;20502;-62
2021/06/20 07:30:39;;;;;;;7.20;4.80;;;25.00;54.00;;;;;;4990066;28;20401;-62
2021/06/20 07:33:05;;;;;;;7.00;4.63;;;25.00;54.00;;;;;;4991359;28;20410;-62
2021/06/20 07:35:30;;;;;;;8.10;4.70;;;25.00;53.90;;;;;;4990091;28;20402;-62
2021/06/20 07:37:56;;;;;;;6.65;4.72;;;25.00;54.10;;;;;;4990384;28;20395;-62
2021/06/20 07:40:22;;;;;;;6.53;4.90;;;25.00;54.00;;;;;;4998662;28;20497;-62
2021/06/20 07:42:48;;;;;;;4.82;4.32;;;25.00;54.00;;;;;;4989371;28;20399;-62
2021/06/20 07:45:15;;;;;;;5.88;5.15;;;25.00;54.10;;;;;;4988818;28;20468;-62
2021/06/20 07:47:42;;;;;;;5.55;4.60;;;25.00;54.10;;;;;;4987988;28;20391;-61
2021/06/20 07:50:10;;;;;;;7.00;4.85;;;25.00;54.10;;;;;;4992157;28;20393;-62
2021/06/20 07:52:36;;;;;;;6.47;5.03;;;25.00;54.00;;;;;;4985312;28;20437;-62
2021/06/20 07:55:03;;;;;;;5.97;4.40;;;25.00;54.00;;;;;;4987062;28;20406;-62
2021/06/20 07:57:29;;;;;;;5.50;4.45;;;25.00;54.10;;;;;;4984819;28;20901;-62
2021/06/20 07:59:55;;;;;;;5.70;5.07;;;25.00;54.00;;;;;;4985169;28;21394;-62
2021/06/20 08:02:20;;;;;;;6.32;4.47;;;25.00;54.00;;;;;;4985763;28;20406;-62
2021/06/20 08:04:47;;;;;;;6.00;4.70;;;24.90;54.10;;;;;;4984857;28;20430;-62
2021/06/20 08:07:14;;;;;;;5.43;4.45;;;25.00;54.10;;;;;;4983340;28;21412;-62
2021/06/20 08:09:39;;;;;;;5.20;4.60;;;25.00;54.00;;;;;;4985889;28;20394;-62
2021/06/20 08:12:06;;;;;;;6.25;4.68;;;25.00;54.10;;;;;;4983927;28;20395;-63
2021/06/20 08:14:32;;;;;;;5.25;4.13;;;24.90;53.90;;;;;;4985684;28;20391;-62
2021/06/20 08:16:58;;;;;;;5.57;4.63;;;24.90;54.00;;;;;;4983293;28;20453;-64
2021/06/20 08:19:23;;;;;;;6.47;4.90;;;25.00;54.10;;;;;;4983449;28;20478;-64
2021/06/20 08:21:49;;;;;;;6.07;5.03;;;24.90;54.10;;;;;;4989459;28;20402;-61
2021/06/20 08:24:15;;;;;;;5.15;4.53;;;24.90;54.20;;;;;;4994565;28;20417;-66
2021/06/20 08:26:42;;;;;;;6.13;4.60;;;24.90;54.10;;;;;;4990394;28;20477;-62
2021/06/20 08:29:08;;;;;;;5.60;4.88;;;24.90;54.10;;;;;;4987947;28;20866;-62
2021/06/20 08:31:34;;;;;;;5.65;4.70;;;24.90;54.10;;;;;;4988744;28;20403;-62
2021/06/20 08:34:00;;;;;;;5.32;4.65;;;24.90;54.10;;;;;;4989590;28;20388;-63
2021/06/20 08:36:27;;;;;;;5.70;4.73;;;24.90;54.00;;;;;;4989817;28;20521;-62
2021/06/20 08:38:53;;;;;;;8.50;4.80;;;24.90;54.10;;;;;;4989996;28;20379;-62
2021/06/20 08:41:20;;;;;;;5.82;4.50;;;24.90;54.10;;;;;;4992850;28;20388;-62
2021/06/20 08:43:46;;;;;;;5.75;4.60;;;24.90;54.10;;;;;;4991569;28;20387;-62
2021/06/20 08:46:12;;;;;;;5.93;4.83;;;24.90;54.10;;;;;;4989178;28;20406;-62
2021/06/20 08:48:38;;;;;;;5.80;4.50;;;24.90;54.10;;;;;;4988627;28;21192;-61
2021/06/20 08:51:05;;;;;;;5.78;4.50;;;24.90;54.10;;;;;;4988072;28;20456;-62
2021/06/20 08:53:31;;;;;;;6.80;4.30;;;24.90;54.20;;;;;;4984420;28;20406;-69
2021/06/20 08:55:57;;;;;;;6.18;4.32;;;24.90;54.20;;;;;;4982180;28;20394;-63
2021/06/20 08:58:26;;;;;;;5.75;4.32;;;24.90;54.10;;;;;;4985403;28;20402;-69
2021/06/20 09:00:51;;;;;;;6.33;4.67;;;24.90;54.20;;;;;;4988537;28;20494;-62
2021/06/20 09:03:17;;;;;;;6.40;4.50;;;24.90;54.10;;;;;;4985705;28;20493;-63
2021/06/20 09:06:08;;;;;;;6.50;4.32;;;24.90;54.10;;;;;;4986055;28;20418;-63
2021/06/20 09:08:34;;;;;;;6.65;4.80;;;25.00;54.10;;;;;;4989725;28;20388;-62
2021/06/20 09:11:00;;;;;;;6.87;4.80;;;24.90;54.10;;;;;;4985538;28;20394;-62
2021/06/20 09:13:33;;;;;;;6.35;4.18;;;24.90;54.00;;;;;;5000990;28;20405;-62
2021/06/20 09:16:05;;;;;;;5.18;4.20;;;24.90;54.10;;;;;;4988071;28;20398;-61
2021/06/20 09:18:31;;;;;;;7.13;4.85;;;24.90;54.00;;;;;;4988029;28;20398;-62
2021/06/20 09:20:57;;;;;;;7.22;4.65;;;24.90;54.00;;;;;;4986084;28;21001;-62
2021/06/20 09:23:23;;;;;;;6.72;4.50;;;24.90;54.00;;;;;;4985949;28;21217;-62
2021/06/20 09:25:59;;;;;;;6.45;4.65;;;24.90;54.00;;;;;;4988052;28;20421;-62
2021/06/20 09:28:33;;;;;;;5.75;4.40;;;25.00;54.00;;;;;;4987722;28;21472;-62
2021/06/20 09:31:03;;;;;;;5.88;4.30;;;24.90;53.90;;;;;;4987200;28;21108;-62
2021/06/20 09:33:33;;;;;;;5.47;4.30;;;24.90;54.00;;;;;;4987502;28;20758;-62
2021/06/20 09:35:59;;;;;;;6.63;4.20;;;24.90;54.10;;;;;;4985590;28;20402;-62
2021/06/20 09:38:30;;;;;;;9.60;4.77;;;24.90;54.10;;;;;;4990651;28;20389;-63
2021/06/20 09:41:04;;;;;;;7.90;4.75;;;25.00;54.30;;;;;;4986183;28;21039;-63
2021/06/20 09:43:31;;;;;;;7.43;4.47;;;25.00;54.40;;;;;;4985985;28;20398;-62
2021/06/20 09:45:57;;;;;;;7.53;4.30;;;25.00;54.40;;;;;;4987875;28;20418;-62
2021/06/20 09:48:28;;;;;;;9.93;4.70;;;25.00;55.50;;;;;;4986296;28;20825;-64
2021/06/20 09:50:56;;;;;;;12.52;4.85;;;25.00;55.20;;;;;;4987587;28;20398;-64
2021/06/20 09:53:38;;;;;;;19.20;6.82;;;25.10;55.80;;;;;;4987199;28;20398;-63
2021/06/20 09:56:11;;;;;;;12.23;5.95;;;25.10;56.20;;;;;;4998935;28;20488;-64
2021/06/20 09:58:42;;;;;;;13.35;5.75;;;25.10;55.90;;;;;;4985666;28;20404;-64
2021/06/20 10:01:10;;;;;;;9.73;5.30;;;25.10;55.60;;;;;;4986392;28;20649;-63
2021/06/20 10:03:36;;;;;;;12.93;5.35;;;25.10;55.00;;;;;;4986155;28;20520;-64
2021/06/20 10:06:03;;;;;;;8.65;5.22;;;25.10;55.90;;;;;;4989103;28;20430;-65
2021/06/20 10:08:31;;;;;;;10.55;5.28;;;25.20;56.00;;;;;;4990696;28;20881;-64
2021/06/20 10:11:01;;;;;;;12.75;5.18;;;25.20;55.80;;;;;;4985510;28;21001;-66
2021/06/20 10:13:26;;;;;;;9.13;4.72;;;25.20;55.50;;;;;;4988379;28;20406;-64
2021/06/20 10:15:52;;;;;;;11.10;4.97;;;25.20;55.70;;;;;;4985199;28;20741;-64
2021/06/20 10:18:19;;;;;;;12.20;5.13;;;25.30;55.40;;;;;;4984325;28;20763;-64
2021/06/20 10:20:45;;;;;;;12.27;5.18;;;25.30;55.20;;;;;;4987469;28;20759;-64
2021/06/20 10:23:25;;;;;;;11.95;5.05;;;25.30;55.70;;;;;;4989688;28;21488;-69
2021/06/20 10:25:52;;;;;;;9.32;5.00;;;25.30;55.60;;;;;;4993323;28;20420;-63
2021/06/20 10:28:23;;;;;;;8.63;4.45;;;25.40;55.60;;;;;;4992241;28;20389;-64
2021/06/20 10:30:49;;;;;;;8.48;4.13;;;25.40;55.30;;;;;;4999235;28;20454;-63
2021/06/20 10:33:18;;;;;;;8.32;4.63;;;25.40;55.30;;;;;;4986775;28;20387;-64
2021/06/20 10:35:55;;;;;;;8.60;4.55;;;25.40;55.20;;;;;;4984895;28;20770;-63
2021/06/20 10:38:41;;;;;;;8.93;4.40;;;25.40;54.90;;;;;;4986799;28;20399;-64
2021/06/20 10:41:09;;;;;;;7.35;4.18;;;25.30;54.80;;;;;;4985154;28;20434;-63
2021/06/20 10:43:35;;;;;;;8.93;4.50;;;25.30;54.80;;;;;;5000958;28;20825;-64
2021/06/20 10:46:12;;;;;;;8.45;4.50;;;25.30;54.80;;;;;;4991823;28;20517;-64
2021/06/20 10:48:37;;;;;;;8.98;4.05;;;25.30;54.80;;;;;;4984614;28;20399;-64
2021/06/20 10:51:04;;;;;;;9.32;4.50;;;25.30;54.80;;;;;;4984806;28;20875;-64
2021/06/20 10:53:40;;;;;;;6.72;4.03;;;25.30;54.80;;;;;;4985583;28;20387;-64
2021/06/20 10:56:06;;;;;;;9.82;4.18;;;25.20;54.60;;;;;;4985161;28;20868;-64
2021/06/20 10:58:34;;;;;;;9.38;4.63;;;25.20;54.60;;;;;;4984818;28;20411;-64
2021/06/20 11:01:12;;;;;;;7.93;4.30;;;25.30;54.60;;;;;;4985436;28;20445;-64
2021/06/20 11:03:39;;;;;;;7.45;3.97;;;25.30;54.60;;;;;;4983872;28;20422;-63
2021/06/20 11:06:04;;;;;;;8.07;3.90;;;25.20;54.50;;;;;;4990399;28;20418;-62
2021/06/20 11:08:35;;;;;;;8.60;4.40;;;25.30;54.50;;;;;;4985185;28;20393;-62
2021/06/20 11:11:25;;;;;;;8.77;4.18;;;25.30;54.50;;;;;;4985143;28;20417;-62
2021/06/20 11:13:57;;;;;;;6.85;4.40;;;25.30;54.40;;;;;;4986973;28;20403;-65
2021/06/20 11:16:37;;;;;;;8.00;4.00;;;25.30;54.40;;;;;;4985979;28;20938;-69
2021/06/20 11:19:09;;;;;;;6.00;3.90;;;25.30;54.40;;;;;;4986738;28;20569;-64
2021/06/20 11:21:44;;;;;;;7.35;4.20;;;25.20;54.20;;;;;;4983010;28;20417;-62
2021/06/20 11:24:12;;;;;;;7.03;4.20;;;25.30;54.30;;;;;;4992918;28;20932;-66
2021/06/20 11:26:38;;;;;;;6.83;4.30;;;25.30;54.40;;;;;;4986104;28;20502;-63
2021/06/20 11:29:08;;;;;;;6.78;4.18;;;25.30;54.60;;;;;;4986879;28;20577;-63
2021/06/20 11:31:55;;;;;;;8.82;4.35;;;25.30;54.50;;;;;;4987439;28;20395;-62
2021/06/20 11:34:22;;;;;;;7.68;4.35;;;25.30;54.80;;;;;;4984370;28;20410;-63
2021/06/20 11:36:48;;;;;;;8.25;4.07;;;25.40;54.90;;;;;;4985234;28;20874;-63
2021/06/20 11:39:15;;;;;;;7.78;4.18;;;25.30;55.10;;;;;;4983582;28;20407;-63
2021/06/20 11:41:44;;;;;;;7.03;4.40;;;25.30;54.90;;;;;;4986142;28;20815;-63
2021/06/20 11:44:10;;;;;;;11.15;4.55;;;25.30;54.70;;;;;;4985148;28;20421;-64
2021/06/20 11:46:41;;;;;;;8.77;3.95;;;25.30;54.80;;;;;;4984546;28;20405;-62
2021/06/20 11:49:26;;;;;;;7.40;3.88;;;25.30;54.90;;;;;;4983145;28;20497;-63
2021/06/20 11:51:55;;;;;;;8.48;4.28;;;25.30;54.70;;;;;;4984215;28;20394;-62
2021/06/20 11:54:26;;;;;;;7.83;4.27;;;25.30;55.50;;;;;;4985579;28;20398;-62
2021/06/20 11:57:04;;;;;;;7.07;3.92;;;25.30;54.70;;;;;;4984256;28;20445;-63
2021/06/20 11:59:35;;;;;;;7.97;4.28;;;25.30;54.50;;;;;;4983968;28;20394;-63
2021/06/20 12:02:03;;;;;;;6.53;4.05;;;25.30;54.70;;;;;;4983760;28;20426;-63
2021/06/20 12:04:31;;;;;;;8.00;4.13;;;25.30;54.60;;;;;;4984426;28;20425;-63
2021/06/20 12:07:02;;;;;;;6.83;3.83;;;25.30;54.60;;;;;;4983713;28;20470;-63
2021/06/20 12:09:27;;;;;;;6.95;4.00;;;25.30;54.50;;;;;;4984980;28;20386;-63
2021/06/20 12:11:59;;;;;;;7.07;3.80;;;25.30;54.50;;;;;;4983318;28;20457;-63
2021/06/20 12:14:26;;;;;;;8.80;4.28;;;25.30;54.50;;;;;;4984278;28;20462;-64
2021/06/20 12:16:53;;;;;;;7.03;3.85;;;25.30;54.50;;;;;;4983707;28;21424;-66
2021/06/20 12:19:21;;;;;;;8.70;3.58;;;25.30;54.40;;;;;;4983861;28;20401;-63
2021/06/20 12:21:48;;;;;;;9.68;3.85;;;25.30;54.40;;;;;;4984945;28;20868;-64
2021/06/20 12:24:15;;;;;;;9.15;4.22;;;25.30;54.40;;;;;;4983269;28;20530;-64
2021/06/20 12:26:51;;;;;;;8.20;4.05;;;25.30;54.30;;;;;;4985843;28;20479;-68
2021/06/20 12:29:17;;;;;;;6.63;3.90;;;25.30;54.20;;;;;;4983836;28;20879;-64
2021/06/20 12:31:55;;;;;;;7.05;3.80;;;25.30;54.20;;;;;;4998067;28;20594;-64
2021/06/20 12:34:21;;;;;;;6.47;3.60;;;25.40;54.10;;;;;;4987873;28;20402;-64
2021/06/20 12:36:57;;;;;;;6.67;3.80;;;25.40;54.20;;;;;;4990194;28;20750;-64
2021/06/20 12:39:23;;;;;;;6.53;3.50;;;25.40;54.10;;;;;;4986941;28;20541;-64
2021/06/20 12:42:01;;;;;;;5.97;3.67;;;25.40;54.10;;;;;;4987522;28;20834;-63
2021/06/20 12:44:51;;;;;;;7.68;3.80;;;25.40;54.00;;;;;;4987743;28;20805;-64
2021/06/20 12:47:28;;;;;;;7.13;3.85;;;25.40;54.10;;;;;;4986866;28;20386;-64